createdAt,value
2018-12-12T00:00:00.810Z,1.48
2018-12-12T00:00:13.212Z,1.48
2018-12-12T00:00:25.592Z,1.48
2018-12-12T00:00:37.979Z,1.7
2018-12-12T00:00:50.368Z,1.7
2018-12-12T00:01:02.753Z,1.7
2018-12-12T00:01:15.124Z,1.7
2018-12-12T00:01:27.490Z,1.7
2018-12-12T00:01:39.873Z,1.7
2018-12-12T00:01:52.259Z,1.7
2018-12-12T00:02:04.645Z,1.7
2018-12-12T00:02:17.156Z,1.7
2018-12-12T00:02:29.523Z,1.7
2018-12-12T00:02:42.050Z,1.7
2018-12-12T00:02:54.439Z,1.7
2018-12-12T00:03:06.818Z,1.7
2018-12-12T00:03:19.219Z,1.7
2018-12-12T00:03:31.587Z,1.7
2018-12-12T00:03:43.949Z,1.7
2018-12-12T00:03:56.321Z,1.7
2018-12-12T00:04:08.680Z,1.7
2018-12-12T00:04:21.038Z,1.7
2018-12-12T00:04:33.399Z,1.7
2018-12-12T00:04:45.954Z,1.7
2018-12-12T00:04:58.334Z,1.7
2018-12-12T00:05:10.788Z,1.7
2018-12-12T00:05:23.322Z,1.7
2018-12-12T00:05:35.697Z,1.7
2018-12-12T00:05:48.084Z,1.7
2018-12-12T00:06:01.355Z,1.7
2018-12-12T00:06:13.719Z,1.7
2018-12-12T00:06:26.089Z,1.7
2018-12-12T00:06:38.463Z,1.7
2018-12-12T00:06:50.843Z,1.7
2018-12-12T00:07:03.198Z,1.7
2018-12-12T00:07:15.574Z,1.7
2018-12-12T00:07:27.964Z,1.7
2018-12-12T00:07:40.331Z,1.7
2018-12-12T00:07:52.762Z,1.7
2018-12-12T00:08:05.133Z,1.7
2018-12-12T00:08:17.510Z,1.7
2018-12-12T00:08:29.940Z,1.7
2018-12-12T00:08:42.299Z,1.7
2018-12-12T00:08:54.724Z,1.7
2018-12-12T00:09:07.101Z,1.7
2018-12-12T00:09:19.486Z,1.7
2018-12-12T00:09:31.896Z,1.7
2018-12-12T00:09:44.262Z,1.7
2018-12-12T00:09:56.886Z,1.7
2018-12-12T00:10:09.367Z,1.7
2018-12-12T00:10:21.794Z,1.7
2018-12-12T00:10:34.177Z,1.7
2018-12-12T00:10:46.594Z,1.5
2018-12-12T00:10:59.032Z,1.5
2018-12-12T00:11:11.411Z,1.5
2018-12-12T00:11:23.778Z,1.5
2018-12-12T00:11:36.143Z,1.5
2018-12-12T00:11:48.511Z,1.5
2018-12-12T00:12:00.887Z,1.5
2018-12-12T00:12:13.251Z,1.5
2018-12-12T00:12:25.696Z,1.5
2018-12-12T00:12:38.054Z,1.5
2018-12-12T00:12:50.427Z,1.5
2018-12-12T00:13:02.867Z,1.5
2018-12-12T00:13:15.240Z,1.5
2018-12-12T00:13:27.637Z,1.5
2018-12-12T00:13:39.999Z,1.5
2018-12-12T00:13:52.371Z,1.5
2018-12-12T00:14:04.728Z,1.5
2018-12-12T00:14:17.087Z,1.5
2018-12-12T00:14:29.494Z,1.5
2018-12-12T00:14:41.873Z,1.5
2018-12-12T00:14:54.308Z,1.5
2018-12-12T00:15:06.669Z,1.5
2018-12-12T00:15:19.036Z,1.5
2018-12-12T00:15:31.418Z,1.5
2018-12-12T00:15:45.190Z,1.5
2018-12-12T00:15:57.581Z,1.5
2018-12-12T00:16:10.017Z,1.5
2018-12-12T00:16:22.406Z,1.5
2018-12-12T00:16:34.774Z,1.5
2018-12-12T00:16:47.159Z,1.5
2018-12-12T00:16:59.530Z,1.5
2018-12-12T00:17:11.893Z,1.5
2018-12-12T00:17:24.259Z,1.5
2018-12-12T00:17:36.635Z,1.5
2018-12-12T00:17:48.997Z,1.5
2018-12-12T00:18:01.528Z,1.5
2018-12-12T00:18:13.916Z,1.5
2018-12-12T00:18:26.284Z,1.5
2018-12-12T00:18:38.699Z,1.5
2018-12-12T00:18:51.048Z,1.5
2018-12-12T00:19:03.534Z,1.5
2018-12-12T00:19:15.896Z,1.5
2018-12-12T00:19:28.270Z,1.5
2018-12-12T00:19:40.702Z,1.5
2018-12-12T00:19:53.062Z,1.5
2018-12-12T00:20:05.429Z,1.5
2018-12-12T00:20:17.812Z,1.5
2018-12-12T00:20:30.207Z,1.5
2018-12-12T00:20:42.755Z,1.36
2018-12-12T00:20:55.127Z,1.36
2018-12-12T00:21:07.563Z,1.36
2018-12-12T00:21:19.952Z,1.36
2018-12-12T00:21:32.314Z,1.36
2018-12-12T00:21:44.684Z,1.36
2018-12-12T00:21:57.050Z,1.36
2018-12-12T00:22:09.477Z,1.36
2018-12-12T00:22:21.887Z,1.36
2018-12-12T00:22:34.261Z,1.36
2018-12-12T00:22:46.952Z,1.36
2018-12-12T00:22:59.331Z,1.36
2018-12-12T00:23:11.696Z,1.36
2018-12-12T00:23:24.062Z,1.36
2018-12-12T00:23:36.438Z,1.36
2018-12-12T00:23:48.802Z,1.36
2018-12-12T00:24:01.165Z,1.36
2018-12-12T00:24:13.527Z,1.36
2018-12-12T00:24:25.894Z,1.36
2018-12-12T00:24:38.269Z,1.36
2018-12-12T00:24:50.631Z,1.36
2018-12-12T00:25:03.063Z,1.36
2018-12-12T00:25:15.497Z,1.36
2018-12-12T00:25:27.880Z,1.36
2018-12-12T00:25:40.252Z,1.36
2018-12-12T00:25:52.622Z,1.36
2018-12-12T00:26:04.985Z,1.36
2018-12-12T00:26:17.348Z,1.36
2018-12-12T00:26:29.865Z,1.36
2018-12-12T00:26:42.227Z,1.36
2018-12-12T00:26:54.650Z,1.36
2018-12-12T00:27:07.006Z,1.36
2018-12-12T00:27:19.438Z,1.36
2018-12-12T00:27:31.844Z,1.36
2018-12-12T00:27:44.213Z,1.36
2018-12-12T00:27:56.594Z,1.36
2018-12-12T00:28:08.999Z,1.36
2018-12-12T00:28:21.390Z,1.36
2018-12-12T00:28:33.748Z,1.36
2018-12-12T00:28:46.106Z,1.36
2018-12-12T00:28:58.526Z,1.36
2018-12-12T00:29:10.965Z,1.36
2018-12-12T00:29:23.316Z,1.36
2018-12-12T00:29:35.693Z,1.36
2018-12-12T00:29:48.046Z,1.36
2018-12-12T00:30:00.571Z,1.36
2018-12-12T00:30:12.939Z,1.36
2018-12-12T00:30:25.299Z,1.36
2018-12-12T00:30:38.010Z,1.38
2018-12-12T00:30:50.372Z,1.38
2018-12-12T00:31:02.763Z,1.38
2018-12-12T00:31:15.129Z,1.38
2018-12-12T00:31:27.524Z,1.38
2018-12-12T00:31:39.910Z,1.38
2018-12-12T00:31:52.276Z,1.38
2018-12-12T00:32:04.649Z,1.38
2018-12-12T00:32:17.017Z,1.38
2018-12-12T00:32:29.396Z,1.38
2018-12-12T00:32:41.733Z,1.38
2018-12-12T00:32:54.098Z,1.38
2018-12-12T00:33:06.457Z,1.38
2018-12-12T00:33:18.852Z,1.38
2018-12-12T00:33:31.263Z,1.38
2018-12-12T00:33:43.709Z,1.38
2018-12-12T00:33:56.068Z,1.38
2018-12-12T00:34:08.427Z,1.38
2018-12-12T00:34:20.785Z,1.38
2018-12-12T00:34:33.168Z,1.38
2018-12-12T00:34:45.618Z,1.38
2018-12-12T00:34:57.990Z,1.38
2018-12-12T00:35:10.400Z,1.38
2018-12-12T00:35:22.776Z,1.38
2018-12-12T00:35:35.141Z,1.38
2018-12-12T00:35:49.005Z,1.38
2018-12-12T00:36:01.395Z,1.38
2018-12-12T00:36:13.799Z,1.38
2018-12-12T00:36:26.172Z,1.38
2018-12-12T00:36:38.545Z,1.38
2018-12-12T00:36:50.925Z,1.38
2018-12-12T00:37:03.307Z,1.38
2018-12-12T00:37:15.837Z,1.38
2018-12-12T00:37:28.212Z,1.38
2018-12-12T00:37:40.590Z,1.38
2018-12-12T00:37:52.966Z,1.38
2018-12-12T00:38:05.334Z,1.38
2018-12-12T00:38:17.692Z,1.38
2018-12-12T00:38:30.042Z,1.38
2018-12-12T00:38:42.421Z,1.38
2018-12-12T00:38:54.775Z,1.38
2018-12-12T00:39:07.143Z,1.38
2018-12-12T00:39:19.532Z,1.38
2018-12-12T00:39:31.932Z,1.38
2018-12-12T00:39:44.449Z,1.38
2018-12-12T00:39:56.880Z,1.38
2018-12-12T00:40:09.251Z,1.38
2018-12-12T00:40:21.609Z,1.38
2018-12-12T00:40:33.961Z,1.38
2018-12-12T00:40:46.335Z,1.57
2018-12-12T00:40:58.829Z,1.57
2018-12-12T00:41:11.279Z,1.57
2018-12-12T00:41:23.644Z,1.57
2018-12-12T00:41:35.996Z,1.57
2018-12-12T00:41:48.356Z,1.57
2018-12-12T00:42:00.737Z,1.57
2018-12-12T00:42:13.557Z,1.57
2018-12-12T00:42:26.911Z,1.57
2018-12-12T00:42:39.262Z,1.57
2018-12-12T00:42:51.627Z,1.57
2018-12-12T00:43:03.990Z,1.57
2018-12-12T00:43:16.414Z,1.57
2018-12-12T00:43:28.791Z,1.57
2018-12-12T00:43:41.228Z,1.57
2018-12-12T00:43:53.599Z,1.57
2018-12-12T00:44:06.050Z,1.57
2018-12-12T00:44:18.431Z,1.57
2018-12-12T00:44:30.950Z,1.57
2018-12-12T00:44:43.403Z,1.57
2018-12-12T00:44:55.769Z,1.57
2018-12-12T00:45:08.135Z,1.57
2018-12-12T00:45:20.508Z,1.57
2018-12-12T00:45:32.870Z,1.57
2018-12-12T00:45:45.235Z,1.57
2018-12-12T00:45:57.605Z,1.57
2018-12-12T00:46:09.959Z,1.57
2018-12-12T00:46:22.330Z,1.57
2018-12-12T00:46:34.746Z,1.57
2018-12-12T00:46:47.106Z,1.57
2018-12-12T00:46:59.477Z,1.57
2018-12-12T00:47:11.925Z,1.57
2018-12-12T00:47:24.298Z,1.57
2018-12-12T00:47:36.702Z,1.57
2018-12-12T00:47:49.058Z,1.57
2018-12-12T00:48:01.424Z,1.57
2018-12-12T00:48:13.795Z,1.57
2018-12-12T00:48:26.167Z,1.57
2018-12-12T00:48:38.545Z,1.57
2018-12-12T00:48:50.914Z,1.57
2018-12-12T00:49:03.285Z,1.57
2018-12-12T00:49:15.639Z,1.57
2018-12-12T00:49:28.008Z,1.57
2018-12-12T00:49:40.444Z,1.57
2018-12-12T00:49:52.818Z,1.57
2018-12-12T00:50:05.311Z,1.57
2018-12-12T00:50:17.673Z,1.57
2018-12-12T00:50:30.105Z,1.57
2018-12-12T00:50:42.543Z,1.85
2018-12-12T00:50:54.914Z,1.85
2018-12-12T00:51:07.295Z,1.85
2018-12-12T00:51:19.674Z,1.85
2018-12-12T00:51:32.046Z,1.85
2018-12-12T00:51:44.413Z,1.85
2018-12-12T00:51:56.782Z,1.85
2018-12-12T00:52:09.323Z,1.85
2018-12-12T00:52:21.683Z,1.85
2018-12-12T00:52:34.061Z,1.85
2018-12-12T00:52:46.425Z,1.85
2018-12-12T00:52:58.852Z,1.85
2018-12-12T00:53:11.214Z,1.85
2018-12-12T00:53:23.610Z,1.85
2018-12-12T00:53:35.979Z,1.85
2018-12-12T00:53:48.349Z,1.85
2018-12-12T00:54:00.701Z,1.85
2018-12-12T00:54:13.309Z,1.85
2018-12-12T00:54:25.661Z,1.85
2018-12-12T00:54:38.021Z,1.85
2018-12-12T00:54:50.376Z,1.85
2018-12-12T00:55:02.933Z,1.85
2018-12-12T00:55:15.287Z,1.85
2018-12-12T00:55:27.644Z,1.85
2018-12-12T00:55:40.002Z,1.85
2018-12-12T00:55:53.285Z,1.85
2018-12-12T00:56:05.661Z,1.85
2018-12-12T00:56:18.045Z,1.85
2018-12-12T00:56:30.421Z,1.85
2018-12-12T00:56:42.944Z,1.85
2018-12-12T00:56:55.305Z,1.85
2018-12-12T00:57:07.654Z,1.85
2018-12-12T00:57:20.045Z,1.85
2018-12-12T00:57:32.416Z,1.85
2018-12-12T00:57:44.771Z,1.85
2018-12-12T00:57:57.130Z,1.85
2018-12-12T00:58:09.505Z,1.85
2018-12-12T00:58:21.963Z,1.85
2018-12-12T00:58:34.393Z,1.85
2018-12-12T00:58:46.784Z,1.85
2018-12-12T00:58:59.169Z,1.85
2018-12-12T00:59:11.539Z,1.85
2018-12-12T00:59:23.914Z,1.85
2018-12-12T00:59:36.291Z,1.85
2018-12-12T00:59:48.640Z,1.85
2018-12-12T01:00:01.053Z,1.85
2018-12-12T01:00:13.457Z,1.85
2018-12-12T01:00:25.842Z,1.85
2018-12-12T01:00:38.223Z,1.85
2018-12-12T01:00:50.571Z,1.6
2018-12-12T01:01:02.968Z,1.6
2018-12-12T01:01:15.327Z,1.6
2018-12-12T01:01:27.687Z,1.6
2018-12-12T01:01:40.084Z,1.6
2018-12-12T01:01:52.463Z,1.6
2018-12-12T01:02:04.923Z,1.6
2018-12-12T01:02:17.285Z,1.6
2018-12-12T01:02:29.650Z,1.6
2018-12-12T01:02:42.165Z,1.6
2018-12-12T01:02:54.545Z,1.6
2018-12-12T01:03:06.924Z,1.6
2018-12-12T01:03:19.279Z,1.6
2018-12-12T01:03:31.661Z,1.6
2018-12-12T01:03:44.024Z,1.6
2018-12-12T01:03:56.402Z,1.6
2018-12-12T01:04:08.854Z,1.6
2018-12-12T01:04:21.214Z,1.6
2018-12-12T01:04:33.587Z,1.6
2018-12-12T01:04:45.976Z,1.6
2018-12-12T01:04:58.343Z,1.6
2018-12-12T01:05:10.739Z,1.6
2018-12-12T01:05:23.419Z,1.6
2018-12-12T01:05:35.784Z,1.6
2018-12-12T01:05:48.160Z,1.6
2018-12-12T01:06:00.528Z,1.6
2018-12-12T01:06:12.908Z,1.6
2018-12-12T01:06:25.276Z,1.6
2018-12-12T01:06:37.704Z,1.6
2018-12-12T01:06:50.073Z,1.6
2018-12-12T01:07:02.423Z,1.6
2018-12-12T01:07:14.776Z,1.6
2018-12-12T01:07:27.431Z,1.6
2018-12-12T01:07:39.818Z,1.6
2018-12-12T01:07:52.178Z,1.6
2018-12-12T01:08:04.548Z,1.6
2018-12-12T01:08:16.899Z,1.6
2018-12-12T01:08:29.258Z,1.6
2018-12-12T01:08:41.656Z,1.6
2018-12-12T01:08:54.028Z,1.6
2018-12-12T01:09:06.461Z,1.6
2018-12-12T01:09:18.826Z,1.6
2018-12-12T01:09:31.196Z,1.6
2018-12-12T01:09:43.573Z,1.6
2018-12-12T01:09:56.123Z,1.6
2018-12-12T01:10:08.514Z,1.6
2018-12-12T01:10:20.897Z,1.6
2018-12-12T01:10:33.267Z,1.6
2018-12-12T01:10:45.628Z,1.48
2018-12-12T01:10:58.013Z,1.48
2018-12-12T01:11:10.388Z,1.48
2018-12-12T01:11:22.766Z,1.48
2018-12-12T01:11:35.129Z,1.48
2018-12-12T01:11:47.534Z,1.48
2018-12-12T01:11:59.970Z,1.48
2018-12-12T01:12:12.348Z,1.48
2018-12-12T01:12:24.744Z,1.48
2018-12-12T01:12:37.110Z,1.48
2018-12-12T01:12:49.474Z,1.48
2018-12-12T01:13:01.990Z,1.48
2018-12-12T01:13:14.383Z,1.48
2018-12-12T01:13:26.742Z,1.48
2018-12-12T01:13:39.131Z,1.48
2018-12-12T01:13:51.500Z,1.48
2018-12-12T01:14:03.893Z,1.48
2018-12-12T01:14:16.265Z,1.48
2018-12-12T01:14:28.641Z,1.48
2018-12-12T01:14:41.025Z,1.48
2018-12-12T01:14:53.380Z,1.48
2018-12-12T01:15:05.989Z,1.48
2018-12-12T01:15:18.351Z,1.48
2018-12-12T01:15:30.705Z,1.48
2018-12-12T01:15:43.086Z,1.48
2018-12-12T01:15:55.457Z,1.48
2018-12-12T01:16:07.813Z,1.48
2018-12-12T01:16:20.210Z,1.48
2018-12-12T01:16:32.570Z,1.48
2018-12-12T01:16:44.937Z,1.48
2018-12-12T01:16:57.294Z,1.48
2018-12-12T01:17:09.663Z,1.48
2018-12-12T01:17:22.027Z,1.48
2018-12-12T01:17:34.395Z,1.48
2018-12-12T01:17:46.777Z,1.48
2018-12-12T01:17:59.435Z,1.48
2018-12-12T01:18:11.832Z,1.48
2018-12-12T01:18:24.212Z,1.48
2018-12-12T01:18:36.563Z,1.48
2018-12-12T01:18:48.975Z,1.48
2018-12-12T01:19:01.495Z,1.48
2018-12-12T01:19:13.851Z,1.48
2018-12-12T01:19:26.213Z,1.48
2018-12-12T01:19:38.579Z,1.48
2018-12-12T01:19:50.960Z,1.48
2018-12-12T01:20:03.337Z,1.48
2018-12-12T01:20:15.704Z,1.48
2018-12-12T01:20:28.066Z,1.48
2018-12-12T01:20:40.453Z,1.55
2018-12-12T01:20:52.811Z,1.55
2018-12-12T01:21:05.173Z,1.55
2018-12-12T01:21:17.528Z,1.55
2018-12-12T01:21:29.986Z,1.55
2018-12-12T01:21:42.336Z,1.55
2018-12-12T01:21:54.722Z,1.55
2018-12-12T01:22:07.238Z,1.55
2018-12-12T01:22:19.603Z,1.55
2018-12-12T01:22:32.250Z,1.55
2018-12-12T01:22:44.616Z,1.55
2018-12-12T01:22:56.984Z,1.55
2018-12-12T01:23:09.381Z,1.55
2018-12-12T01:23:21.755Z,1.55
2018-12-12T01:23:34.127Z,1.55
2018-12-12T01:23:46.500Z,1.55
2018-12-12T01:23:58.867Z,1.55
2018-12-12T01:24:11.229Z,1.55
2018-12-12T01:24:23.797Z,1.55
2018-12-12T01:24:36.268Z,1.55
2018-12-12T01:24:48.665Z,1.55
2018-12-12T01:25:01.035Z,1.55
2018-12-12T01:25:13.395Z,1.55
2018-12-12T01:25:25.814Z,1.55
2018-12-12T01:25:38.161Z,1.55
2018-12-12T01:25:50.524Z,1.55
2018-12-12T01:26:02.875Z,1.55
2018-12-12T01:26:15.262Z,1.55
2018-12-12T01:26:27.773Z,1.55
2018-12-12T01:26:40.129Z,1.55
2018-12-12T01:26:52.485Z,1.55
2018-12-12T01:27:04.867Z,1.55
2018-12-12T01:27:17.300Z,1.55
2018-12-12T01:27:29.642Z,1.55
2018-12-12T01:27:42.003Z,1.55
2018-12-12T01:27:54.359Z,1.55
2018-12-12T01:28:06.722Z,1.55
2018-12-12T01:28:19.085Z,1.55
2018-12-12T01:28:31.448Z,1.55
2018-12-12T01:28:43.820Z,1.55
2018-12-12T01:28:56.187Z,1.55
2018-12-12T01:29:08.554Z,1.55
2018-12-12T01:29:20.915Z,1.55
2018-12-12T01:29:33.286Z,1.55
2018-12-12T01:29:45.653Z,1.55
2018-12-12T01:29:58.194Z,1.55
2018-12-12T01:30:10.568Z,1.55
2018-12-12T01:30:23.042Z,1.55
2018-12-12T01:30:35.615Z,1.55
2018-12-12T01:30:48.138Z,1.9
2018-12-12T01:31:00.513Z,1.9
2018-12-12T01:31:12.864Z,1.9
2018-12-12T01:31:25.226Z,1.9
2018-12-12T01:31:37.599Z,1.9
2018-12-12T01:31:49.963Z,1.9
2018-12-12T01:32:02.326Z,1.9
2018-12-12T01:32:14.849Z,1.9
2018-12-12T01:32:27.224Z,1.9
2018-12-12T01:32:39.601Z,1.9
2018-12-12T01:32:51.946Z,1.9
2018-12-12T01:33:04.442Z,1.9
2018-12-12T01:33:16.818Z,1.9
2018-12-12T01:33:29.196Z,1.9
2018-12-12T01:33:41.566Z,1.9
2018-12-12T01:33:53.961Z,1.9
2018-12-12T01:34:06.319Z,1.9
2018-12-12T01:34:18.690Z,1.9
2018-12-12T01:34:31.069Z,1.9
2018-12-12T01:34:43.430Z,1.9
2018-12-12T01:34:55.832Z,1.9
2018-12-12T01:35:08.218Z,1.9
2018-12-12T01:35:20.611Z,1.9
2018-12-12T01:35:32.967Z,1.9
2018-12-12T01:35:45.403Z,1.9
2018-12-12T01:35:57.778Z,1.9
2018-12-12T01:36:10.143Z,1.9
2018-12-12T01:36:22.519Z,1.9
2018-12-12T01:36:34.926Z,1.9
2018-12-12T01:36:47.302Z,1.9
2018-12-12T01:36:59.664Z,1.9
2018-12-12T01:37:12.184Z,1.9
2018-12-12T01:37:24.531Z,1.9
2018-12-12T01:37:36.876Z,1.9
2018-12-12T01:37:49.245Z,1.9
2018-12-12T01:38:01.615Z,1.9
2018-12-12T01:38:13.999Z,1.9
2018-12-12T01:38:26.362Z,1.9
2018-12-12T01:38:38.736Z,1.9
2018-12-12T01:38:51.109Z,1.9
2018-12-12T01:39:03.468Z,1.9
2018-12-12T01:39:15.834Z,1.9
2018-12-12T01:39:28.191Z,1.9
2018-12-12T01:39:40.609Z,1.9
2018-12-12T01:39:53.116Z,1.9
2018-12-12T01:40:05.482Z,1.9
2018-12-12T01:40:17.850Z,1.9
2018-12-12T01:40:30.272Z,1.9
2018-12-12T01:40:42.649Z,1.73
2018-12-12T01:40:55.096Z,1.73
2018-12-12T01:41:07.799Z,1.73
2018-12-12T01:41:20.299Z,1.73
2018-12-12T01:41:32.672Z,1.73
2018-12-12T01:41:45.042Z,1.73
2018-12-12T01:41:57.465Z,1.73
2018-12-12T01:42:09.965Z,1.73
2018-12-12T01:42:22.317Z,1.73
2018-12-12T01:42:34.668Z,1.73
2018-12-12T01:42:47.030Z,1.73
2018-12-12T01:42:59.394Z,1.73
2018-12-12T01:43:11.774Z,1.73
2018-12-12T01:43:24.157Z,1.73
2018-12-12T01:43:36.524Z,1.73
2018-12-12T01:43:49.063Z,1.73
2018-12-12T01:44:01.545Z,1.73
2018-12-12T01:44:13.915Z,1.73
2018-12-12T01:44:26.278Z,1.73
2018-12-12T01:44:38.780Z,1.73
2018-12-12T01:44:51.215Z,1.73
2018-12-12T01:45:03.588Z,1.73
2018-12-12T01:45:16.006Z,1.73
2018-12-12T01:45:28.375Z,1.73
2018-12-12T01:45:40.760Z,1.73
2018-12-12T01:45:53.200Z,1.73
2018-12-12T01:46:05.639Z,1.73
2018-12-12T01:46:18.014Z,1.73
2018-12-12T01:46:30.387Z,1.73
2018-12-12T01:46:42.759Z,1.73
2018-12-12T01:46:55.121Z,1.73
2018-12-12T01:47:07.479Z,1.73
2018-12-12T01:47:19.846Z,1.73
2018-12-12T01:47:32.218Z,1.73
2018-12-12T01:47:44.591Z,1.73
2018-12-12T01:47:56.978Z,1.73
2018-12-12T01:48:09.339Z,1.73
2018-12-12T01:48:21.712Z,1.73
2018-12-12T01:48:34.148Z,1.73
2018-12-12T01:48:46.505Z,1.73
2018-12-12T01:48:58.861Z,1.73
2018-12-12T01:49:11.295Z,1.73
2018-12-12T01:49:23.663Z,1.73
2018-12-12T01:49:36.035Z,1.73
2018-12-12T01:49:48.393Z,1.73
2018-12-12T01:50:00.882Z,1.73
2018-12-12T01:50:13.386Z,1.73
2018-12-12T01:50:25.797Z,1.73
2018-12-12T01:50:38.175Z,1.73
2018-12-12T01:50:50.732Z,1.42
2018-12-12T01:51:03.111Z,1.42
2018-12-12T01:51:15.485Z,1.42
2018-12-12T01:51:27.848Z,1.42
2018-12-12T01:51:40.221Z,1.42
2018-12-12T01:51:52.576Z,1.42
2018-12-12T01:52:05.031Z,1.42
2018-12-12T01:52:17.393Z,1.42
2018-12-12T01:52:29.880Z,1.42
2018-12-12T01:52:42.239Z,1.42
2018-12-12T01:52:54.606Z,1.42
2018-12-12T01:53:06.955Z,1.42
2018-12-12T01:53:19.314Z,1.42
2018-12-12T01:53:33.039Z,1.42
2018-12-12T01:53:45.551Z,1.42
2018-12-12T01:53:57.916Z,1.42
2018-12-12T01:54:10.498Z,1.42
2018-12-12T01:54:22.881Z,1.42
2018-12-12T01:54:35.276Z,1.42
2018-12-12T01:54:47.656Z,1.42
2018-12-12T01:55:00.179Z,1.42
2018-12-12T01:55:12.537Z,1.42
2018-12-12T01:55:24.886Z,1.42
2018-12-12T01:55:37.253Z,1.42
2018-12-12T01:55:49.745Z,1.42
2018-12-12T01:56:02.104Z,1.42
2018-12-12T01:56:14.461Z,1.42
2018-12-12T01:56:26.818Z,1.42
2018-12-12T01:56:39.283Z,1.42
2018-12-12T01:56:51.643Z,1.42
2018-12-12T01:57:04.041Z,1.42
2018-12-12T01:57:16.419Z,1.42
2018-12-12T01:57:28.824Z,1.42
2018-12-12T01:57:41.235Z,1.42
2018-12-12T01:57:53.615Z,1.42
2018-12-12T01:58:05.998Z,1.42
2018-12-12T01:58:18.799Z,1.42
2018-12-12T01:58:31.191Z,1.42
2018-12-12T01:58:43.555Z,1.42
2018-12-12T01:58:55.926Z,1.42
2018-12-12T01:59:08.322Z,1.42
2018-12-12T01:59:20.679Z,1.42
2018-12-12T01:59:33.109Z,1.42
2018-12-12T01:59:45.484Z,1.42
2018-12-12T01:59:57.894Z,1.42
2018-12-12T02:00:10.275Z,1.42
2018-12-12T02:00:22.666Z,1.42
2018-12-12T02:00:35.061Z,1.42
2018-12-12T02:00:47.419Z,1.64
2018-12-12T02:00:59.813Z,1.64
2018-12-12T02:01:12.180Z,1.64
2018-12-12T02:01:24.557Z,1.64
2018-12-12T02:01:36.922Z,1.64
2018-12-12T02:01:49.316Z,1.64
2018-12-12T02:02:01.767Z,1.64
2018-12-12T02:02:14.137Z,1.64
2018-12-12T02:02:26.529Z,1.64
2018-12-12T02:02:38.961Z,1.64
2018-12-12T02:02:51.343Z,1.64
2018-12-12T02:03:03.730Z,1.64
2018-12-12T02:03:16.097Z,1.64
2018-12-12T02:03:28.501Z,1.64
2018-12-12T02:03:40.861Z,1.64
2018-12-12T02:03:53.231Z,1.64
2018-12-12T02:04:05.606Z,1.64
2018-12-12T02:04:17.988Z,1.64
2018-12-12T02:04:30.348Z,1.64
2018-12-12T02:04:42.730Z,1.64
2018-12-12T02:04:55.105Z,1.64
2018-12-12T02:05:07.497Z,1.64
2018-12-12T02:05:20.754Z,1.64
2018-12-12T02:05:33.453Z,1.64
2018-12-12T02:05:45.834Z,1.64
2018-12-12T02:05:58.194Z,1.64
2018-12-12T02:06:10.575Z,1.64
2018-12-12T02:06:22.945Z,1.64
2018-12-12T02:06:35.310Z,1.64
2018-12-12T02:06:47.665Z,1.64
2018-12-12T02:07:00.155Z,1.64
2018-12-12T02:07:12.516Z,1.64
2018-12-12T02:07:24.895Z,1.64
2018-12-12T02:07:37.253Z,1.64
2018-12-12T02:07:49.616Z,1.64
2018-12-12T02:08:02.049Z,1.64
2018-12-12T02:08:14.461Z,1.64
2018-12-12T02:08:26.846Z,1.64
2018-12-12T02:08:39.200Z,1.64
2018-12-12T02:08:52.977Z,1.64
2018-12-12T02:09:05.371Z,1.64
2018-12-12T02:09:17.746Z,1.64
2018-12-12T02:09:30.133Z,1.64
2018-12-12T02:09:42.502Z,1.64
2018-12-12T02:09:54.946Z,1.64
2018-12-12T02:10:07.347Z,1.64
2018-12-12T02:10:19.729Z,1.64
2018-12-12T02:10:32.101Z,1.64
2018-12-12T02:10:44.531Z,1.61
2018-12-12T02:10:56.895Z,1.61
2018-12-12T02:11:09.270Z,1.61
2018-12-12T02:11:21.617Z,1.61
2018-12-12T02:11:34.009Z,1.61
2018-12-12T02:11:46.402Z,1.61
2018-12-12T02:11:58.773Z,1.61
2018-12-12T02:12:11.161Z,1.61
2018-12-12T02:12:23.645Z,1.61
2018-12-12T02:12:36.080Z,1.61
2018-12-12T02:12:48.427Z,1.61
2018-12-12T02:13:00.811Z,1.61
2018-12-12T02:13:13.344Z,1.61
2018-12-12T02:13:25.729Z,1.61
2018-12-12T02:13:38.091Z,1.61
2018-12-12T02:13:50.455Z,1.61
2018-12-12T02:14:02.850Z,1.61
2018-12-12T02:14:15.224Z,1.61
2018-12-12T02:14:27.589Z,1.61
2018-12-12T02:14:39.977Z,1.61
2018-12-12T02:14:52.336Z,1.61
2018-12-12T02:15:04.867Z,1.61
2018-12-12T02:15:17.242Z,1.61
2018-12-12T02:15:29.593Z,1.61
2018-12-12T02:15:41.959Z,1.61
2018-12-12T02:15:54.327Z,1.61
2018-12-12T02:16:06.667Z,1.61
2018-12-12T02:16:19.032Z,1.61
2018-12-12T02:16:31.376Z,1.61
2018-12-12T02:16:43.743Z,1.61
2018-12-12T02:16:56.112Z,1.61
2018-12-12T02:17:08.548Z,1.61
2018-12-12T02:17:20.912Z,1.61
2018-12-12T02:17:33.321Z,1.61
2018-12-12T02:17:45.692Z,1.61
2018-12-12T02:17:58.097Z,1.61
2018-12-12T02:18:10.456Z,1.61
2018-12-12T02:18:22.823Z,1.61
2018-12-12T02:18:35.187Z,1.61
2018-12-12T02:18:47.575Z,1.61
2018-12-12T02:19:00.102Z,1.61
2018-12-12T02:19:12.465Z,1.61
2018-12-12T02:19:24.844Z,1.61
2018-12-12T02:19:37.228Z,1.61
2018-12-12T02:19:49.594Z,1.61
2018-12-12T02:20:01.974Z,1.61
2018-12-12T02:20:14.333Z,1.61
2018-12-12T02:20:26.701Z,1.61
2018-12-12T02:20:39.091Z,1.61
2018-12-12T02:20:51.457Z,1.61
2018-12-12T02:21:03.827Z,1.61
2018-12-12T02:21:16.213Z,1.61
2018-12-12T02:21:28.597Z,1.61
2018-12-12T02:21:40.977Z,1.61
2018-12-12T02:21:53.369Z,1.61
2018-12-12T02:22:05.735Z,1.61
2018-12-12T02:22:18.108Z,1.61
2018-12-12T02:22:30.466Z,1.61
2018-12-12T02:22:42.853Z,1.61
2018-12-12T02:22:55.226Z,1.61
2018-12-12T02:23:07.589Z,1.61
2018-12-12T02:23:19.938Z,1.61
2018-12-12T02:23:32.310Z,1.61
2018-12-12T02:23:44.686Z,1.61
2018-12-12T02:23:57.080Z,1.61
2018-12-12T02:24:09.456Z,1.61
2018-12-12T02:24:21.835Z,1.61
2018-12-12T02:24:34.198Z,1.61
2018-12-12T02:24:46.567Z,1.61
2018-12-12T02:24:59.079Z,1.61
2018-12-12T02:25:11.443Z,1.61
2018-12-12T02:25:24.126Z,1.61
2018-12-12T02:25:36.479Z,1.61
2018-12-12T02:25:49.027Z,1.61
2018-12-12T02:26:01.406Z,1.61
2018-12-12T02:26:13.843Z,1.61
2018-12-12T02:26:26.311Z,1.61
2018-12-12T02:26:38.671Z,1.61
2018-12-12T02:26:51.027Z,1.61
2018-12-12T02:27:03.390Z,1.61
2018-12-12T02:27:15.758Z,1.61
2018-12-12T02:27:28.140Z,1.61
2018-12-12T02:27:40.509Z,1.61
2018-12-12T02:27:52.895Z,1.61
2018-12-12T02:28:05.255Z,1.61
2018-12-12T02:28:17.614Z,1.61
2018-12-12T02:28:29.995Z,1.61
2018-12-12T02:28:42.359Z,1.61
2018-12-12T02:28:54.721Z,1.61
2018-12-12T02:29:07.091Z,1.61
2018-12-12T02:29:19.465Z,1.61
2018-12-12T02:29:31.808Z,1.61
2018-12-12T02:29:44.180Z,1.61
2018-12-12T02:29:56.745Z,1.61
2018-12-12T02:30:09.203Z,1.61
2018-12-12T02:30:21.626Z,1.61
2018-12-12T02:30:34.358Z,1.61
2018-12-12T02:30:46.965Z,1.85
2018-12-12T02:30:59.345Z,1.85
2018-12-12T02:31:11.731Z,1.85
2018-12-12T02:31:24.141Z,1.85
2018-12-12T02:31:36.530Z,1.85
2018-12-12T02:31:48.897Z,1.85
2018-12-12T02:32:01.283Z,1.85
2018-12-12T02:32:13.686Z,1.85
2018-12-12T02:32:26.082Z,1.85
2018-12-12T02:32:38.462Z,1.85
2018-12-12T02:32:50.848Z,1.85
2018-12-12T02:33:03.330Z,1.85
2018-12-12T02:33:15.721Z,1.85
2018-12-12T02:33:28.134Z,1.85
2018-12-12T02:33:40.509Z,1.85
2018-12-12T02:33:52.901Z,1.85
2018-12-12T02:34:05.380Z,1.85
2018-12-12T02:34:17.781Z,1.85
2018-12-12T02:34:30.231Z,1.85
2018-12-12T02:34:42.645Z,1.85
2018-12-12T02:34:55.011Z,1.85
2018-12-12T02:35:07.389Z,1.85
2018-12-12T02:35:19.777Z,1.85
2018-12-12T02:35:32.186Z,1.85
2018-12-12T02:35:44.774Z,1.85
2018-12-12T02:35:57.210Z,1.85
2018-12-12T02:36:09.610Z,1.85
2018-12-12T02:36:22.045Z,1.85
2018-12-12T02:36:34.456Z,1.85
2018-12-12T02:36:46.889Z,1.85
2018-12-12T02:36:59.283Z,1.85
2018-12-12T02:37:11.815Z,1.85
2018-12-12T02:37:24.209Z,1.85
2018-12-12T02:37:36.604Z,1.85
2018-12-12T02:37:48.976Z,1.85
2018-12-12T02:38:01.344Z,1.85
2018-12-12T02:38:13.720Z,1.85
2018-12-12T02:38:26.163Z,1.85
2018-12-12T02:38:38.573Z,1.85
2018-12-12T02:38:50.951Z,1.85
2018-12-12T02:39:03.333Z,1.85
2018-12-12T02:39:15.745Z,1.85
2018-12-12T02:39:28.117Z,1.85
2018-12-12T02:39:40.506Z,1.85
2018-12-12T02:39:53.007Z,1.85
2018-12-12T02:40:05.422Z,1.85
2018-12-12T02:40:17.839Z,1.85
2018-12-12T02:40:30.242Z,1.85
2018-12-12T02:40:42.631Z,1.85
2018-12-12T02:40:55.013Z,1.75
2018-12-12T02:41:07.986Z,1.75
2018-12-12T02:41:20.367Z,1.75
2018-12-12T02:41:32.766Z,1.75
2018-12-12T02:41:45.174Z,1.75
2018-12-12T02:41:57.565Z,1.75
2018-12-12T02:42:10.198Z,1.75
2018-12-12T02:42:22.583Z,1.75
2018-12-12T02:42:34.962Z,1.75
2018-12-12T02:42:47.378Z,1.75
2018-12-12T02:42:59.769Z,1.75
2018-12-12T02:43:12.147Z,1.75
2018-12-12T02:43:24.509Z,1.75
2018-12-12T02:43:36.895Z,1.75
2018-12-12T02:43:49.297Z,1.75
2018-12-12T02:44:03.337Z,1.75
2018-12-12T02:44:15.727Z,1.75
2018-12-12T02:44:28.274Z,1.75
2018-12-12T02:44:40.681Z,1.75
2018-12-12T02:44:53.089Z,1.75
2018-12-12T02:45:05.589Z,1.75
2018-12-12T02:45:18.002Z,1.75
2018-12-12T02:45:30.396Z,1.75
2018-12-12T02:45:42.779Z,1.75
2018-12-12T02:45:55.155Z,1.75
2018-12-12T02:46:07.543Z,1.75
2018-12-12T02:46:19.938Z,1.75